createdAt,value
2019-02-09T00:00:31.200Z,82.24
2019-02-09T00:01:31.341Z,81.86
2019-02-09T00:02:31.358Z,82.24
2019-02-09T00:03:31.573Z,82.05
2019-02-09T00:04:31.716Z,82.15
2019-02-09T00:05:31.861Z,81.29
2019-02-09T00:06:31.928Z,81.38
2019-02-09T00:07:32.036Z,81.38
2019-02-09T00:08:32.251Z,81.67
2019-02-09T00:09:32.444Z,81.20
2019-02-09T00:10:32.640Z,81.48
2019-02-09T00:11:32.837Z,81.48
2019-02-09T00:12:33.047Z,81.20
2019-02-09T00:13:33.252Z,81.48
2019-02-09T00:14:33.474Z,81.01
2019-02-09T00:15:33.546Z,81.01
2019-02-09T00:16:33.755Z,80.82
2019-02-09T00:17:33.963Z,81.01
2019-02-09T00:18:34.170Z,81.01
2019-02-09T00:19:35.022Z,80.82
2019-02-09T00:20:34.509Z,81.20
2019-02-09T00:21:34.771Z,81.01
2019-02-09T00:22:34.749Z,81.10
2019-02-09T00:23:34.937Z,81.29
2019-02-09T00:24:35.035Z,81.01
2019-02-09T00:25:35.300Z,80.72
2019-02-09T00:26:35.333Z,80.91
2019-02-09T00:27:35.417Z,80.82
2019-02-09T00:28:35.509Z,80.82
2019-02-09T00:29:35.763Z,80.82
2019-02-09T00:30:35.877Z,80.91
2019-02-09T00:31:35.974Z,81.10
2019-02-09T00:32:36.178Z,81.01
2019-02-09T00:33:36.299Z,81.29
2019-02-09T00:34:36.396Z,80.53
2019-02-09T00:35:36.706Z,81.10
2019-02-09T00:36:36.678Z,80.82
2019-02-09T00:37:36.833Z,80.44
2019-02-09T00:38:36.933Z,80.63
2019-02-09T00:39:37.901Z,80.82
2019-02-09T00:40:37.256Z,80.44
2019-02-09T00:41:37.376Z,80.34
2019-02-09T00:42:37.495Z,80.63
2019-02-09T00:43:37.713Z,81.20
2019-02-09T00:44:37.806Z,80.82
2019-02-09T00:45:38.039Z,80.34
2019-02-09T00:46:38.125Z,80.72
2019-02-09T00:47:38.524Z,80.91
2019-02-09T00:48:38.462Z,80.53
2019-02-09T00:49:38.668Z,81.01
2019-02-09T00:50:38.897Z,80.72
2019-02-09T00:51:39.075Z,80.91
2019-02-09T00:52:39.201Z,80.44
2019-02-09T00:53:39.414Z,81.20
2019-02-09T00:54:39.529Z,81.29
2019-02-09T00:55:39.631Z,81.20
2019-02-09T00:56:39.715Z,80.72
2019-02-09T00:57:39.949Z,81.01
2019-02-09T00:58:40.021Z,80.72
2019-02-09T00:59:40.129Z,80.72
2019-02-09T01:00:40.221Z,80.53
2019-02-09T01:01:40.463Z,80.53
2019-02-09T01:02:40.549Z,80.34
2019-02-09T01:03:40.744Z,80.34
2019-02-09T01:04:40.946Z,80.44
2019-02-09T01:05:41.190Z,80.15
2019-02-09T01:06:41.285Z,80.44
2019-02-09T01:07:41.425Z,80.34
2019-02-09T01:08:41.509Z,80.34
2019-02-09T01:09:41.686Z,80.24
2019-02-09T01:10:41.926Z,80.05
2019-02-09T01:11:42.018Z,80.24
2019-02-09T01:12:42.112Z,80.15
2019-02-09T01:13:42.342Z,79.86
2019-02-09T01:14:42.551Z,79.68
2019-02-09T01:15:42.660Z,79.49
2019-02-09T01:16:42.759Z,79.39
2019-02-09T01:17:42.966Z,79.68
2019-02-09T01:18:43.158Z,79.49
2019-02-09T01:19:46.583Z,79.20
2019-02-09T01:20:48.187Z,79.11
2019-02-09T01:21:47.555Z,79.11
2019-02-09T01:22:47.305Z,79.39
2019-02-09T01:23:45.954Z,79.20
2019-02-09T01:24:44.123Z,79.30
2019-02-09T01:25:44.360Z,79.30
2019-02-09T01:26:44.420Z,79.11
2019-02-09T01:27:44.629Z,79.11
2019-02-09T01:28:44.835Z,78.82
2019-02-09T01:29:45.058Z,79.11
2019-02-09T01:30:45.197Z,78.91
2019-02-09T01:31:45.323Z,79.20
2019-02-09T01:32:45.406Z,78.91
2019-02-09T01:33:45.607Z,79.11
2019-02-09T01:34:45.844Z,78.91
2019-02-09T01:35:45.928Z,78.91
2019-02-09T01:36:46.028Z,79.30
2019-02-09T01:37:46.278Z,78.91
2019-02-09T01:38:46.373Z,78.82
2019-02-09T01:39:46.578Z,79.11
2019-02-09T01:40:46.840Z,79.11
2019-02-09T01:41:47.024Z,79.20
2019-02-09T01:42:47.112Z,78.91
2019-02-09T01:43:47.218Z,78.82
2019-02-09T01:44:47.345Z,79.01
2019-02-09T01:45:47.431Z,79.11
2019-02-09T01:46:47.655Z,79.01
2019-02-09T01:47:47.753Z,78.72
2019-02-09T01:48:47.867Z,78.91
2019-02-09T01:49:48.016Z,79.01
2019-02-09T01:50:48.144Z,79.01
2019-02-09T01:51:48.222Z,78.91
2019-02-09T01:52:48.433Z,78.72
2019-02-09T01:53:48.716Z,79.30
2019-02-09T01:54:48.731Z,79.39
2019-02-09T01:55:48.935Z,79.20
2019-02-09T01:56:49.157Z,79.39
2019-02-09T01:57:49.265Z,79.86
2019-02-09T01:58:49.480Z,79.68
2019-02-09T01:59:49.707Z,80.05
2019-02-09T02:00:49.787Z,80.34
2019-02-09T02:01:49.984Z,80.82
2019-02-09T02:02:50.232Z,80.91
2019-02-09T02:03:50.333Z,80.91
2019-02-09T02:04:50.563Z,81.67
2019-02-09T02:05:50.655Z,82.34
2019-02-09T02:06:50.836Z,81.96
2019-02-09T02:07:50.896Z,82.53
2019-02-09T02:08:51.126Z,83.00
2019-02-09T02:09:51.224Z,83.19
2019-02-09T02:10:51.421Z,83.67
2019-02-09T02:11:51.666Z,84.43
2019-02-09T02:12:51.742Z,84.72
2019-02-09T02:13:51.927Z,85.38
2019-02-09T02:14:52.167Z,85.66
2019-02-09T02:15:52.280Z,85.86
2019-02-09T02:16:55.522Z,86.43
2019-02-09T02:17:55.884Z,86.47
2019-02-09T02:18:52.747Z,86.99
2019-02-09T02:19:54.436Z,87.24
2019-02-09T02:20:54.550Z,87.66
2019-02-09T02:21:53.563Z,87.62
2019-02-09T02:22:53.496Z,87.66
2019-02-09T02:23:54.489Z,88.19
2019-02-09T02:24:53.931Z,88.42
2019-02-09T02:25:54.129Z,87.71
2019-02-09T02:26:54.361Z,88.00
2019-02-09T02:27:54.433Z,88.28
2019-02-09T02:28:54.666Z,87.81
2019-02-09T02:29:54.764Z,88.28
2019-02-09T02:30:54.907Z,88.00
2019-02-09T02:31:54.998Z,88.67
2019-02-09T02:32:55.197Z,88.76
2019-02-09T02:33:55.410Z,88.47
2019-02-09T02:34:55.556Z,88.19
2019-02-09T02:35:55.648Z,88.57
2019-02-09T02:36:55.818Z,88.95
2019-02-09T02:37:55.927Z,88.67
2019-02-09T02:38:56.036Z,88.76
2019-02-09T02:39:56.134Z,89.42
2019-02-09T02:40:56.211Z,89.42
2019-02-09T02:41:56.337Z,89.52
2019-02-09T02:42:56.549Z,89.80
2019-02-09T02:43:56.809Z,90.28
2019-02-09T02:44:56.886Z,90.28
2019-02-09T02:45:57.107Z,90.85
2019-02-09T02:46:57.346Z,90.94
2019-02-09T02:47:57.475Z,91.13
2019-02-09T02:48:57.603Z,91.80
2019-02-09T02:49:57.752Z,91.89
2019-02-09T02:50:57.868Z,91.71
2019-02-09T02:51:57.971Z,92.27
2019-02-09T02:52:58.049Z,92.27
2019-02-09T02:53:58.267Z,93.23
2019-02-09T02:54:58.467Z,93.04
2019-02-09T02:55:58.713Z,93.41
2019-02-09T02:56:58.792Z,93.41
2019-02-09T02:57:58.982Z,93.70
2019-02-09T02:58:59.174Z,94.08
2019-02-09T02:59:59.426Z,93.79
2019-02-09T03:00:59.509Z,93.79
2019-02-09T03:01:59.711Z,93.99
2019-02-09T03:02:59.811Z,94.08
2019-02-09T03:04:00.036Z,93.99
2019-02-09T03:05:00.277Z,94.08
2019-02-09T03:06:00.284Z,93.65
2019-02-09T03:07:00.381Z,94.79
2019-02-09T03:08:00.587Z,94.93
2019-02-09T03:09:00.841Z,94.93
2019-02-09T03:10:00.955Z,94.51
2019-02-09T03:11:01.065Z,94.70
2019-02-09T03:12:01.132Z,94.93
2019-02-09T03:13:01.339Z,94.74
2019-02-09T03:14:01.569Z,94.84
2019-02-09T03:15:01.649Z,94.65
2019-02-09T03:16:01.849Z,94.51
2019-02-09T03:17:02.041Z,94.23
2019-02-09T03:18:02.292Z,94.18
2019-02-09T03:19:02.463Z,94.56
2019-02-09T03:20:02.555Z,94.79
2019-02-09T03:21:02.639Z,94.42
2019-02-09T03:22:02.863Z,94.84
2019-02-09T03:23:02.957Z,94.79
2019-02-09T03:24:03.205Z,94.70
2019-02-09T03:25:03.296Z,94.42
2019-02-09T03:26:03.364Z,94.51
2019-02-09T03:27:03.613Z,94.65
2019-02-09T03:28:03.733Z,94.56
2019-02-09T03:29:03.968Z,94.84
2019-02-09T03:30:04.098Z,95.08
2019-02-09T03:31:04.191Z,94.60
2019-02-09T03:32:04.414Z,94.37
2019-02-09T03:33:04.634Z,95.17
2019-02-09T03:34:04.738Z,94.70
2019-02-09T03:35:04.851Z,94.84
2019-02-09T03:36:05.055Z,94.51
2019-02-09T03:37:05.264Z,94.74
2019-02-09T03:38:05.473Z,94.51
2019-02-09T03:39:06.096Z,94.74
2019-02-09T03:40:05.675Z,94.74
2019-02-09T03:41:05.869Z,94.56
2019-02-09T03:42:05.976Z,94.74
2019-02-09T03:43:06.094Z,94.56
2019-02-09T03:44:06.198Z,94.56
2019-02-09T03:45:06.283Z,94.46
2019-02-09T03:46:06.516Z,94.27
2019-02-09T03:47:06.652Z,93.79
2019-02-09T03:48:06.754Z,93.60
2019-02-09T03:49:06.847Z,93.79
2019-02-09T03:50:06.983Z,93.79
2019-02-09T03:51:07.057Z,93.79
2019-02-09T03:52:07.280Z,93.70
2019-02-09T03:53:07.375Z,93.51
2019-02-09T03:54:07.506Z,93.99
2019-02-09T03:55:07.600Z,93.70
2019-02-09T03:56:07.802Z,93.89
2019-02-09T03:57:08.015Z,94.46
2019-02-09T03:58:08.216Z,94.37
2019-02-09T03:59:08.458Z,94.93
2019-02-09T04:00:08.646Z,94.93
2019-02-09T04:01:08.874Z,95.51
2019-02-09T04:02:09.352Z,95.60
2019-02-09T04:03:09.219Z,95.51
2019-02-09T04:04:09.287Z,96.45
2019-02-09T04:05:09.498Z,96.26
2019-02-09T04:06:09.599Z,96.55
2019-02-09T04:07:09.824Z,96.84
2019-02-09T04:08:09.951Z,97.22
2019-02-09T04:09:10.100Z,96.93
2019-02-09T04:10:10.174Z,97.22
2019-02-09T04:11:20.176Z,96.74
2019-02-09T04:12:18.340Z,96.65
2019-02-09T04:13:10.773Z,96.84
2019-02-09T04:14:10.933Z,97.41
2019-02-09T04:15:11.097Z,97.41
2019-02-09T04:16:11.173Z,97.31
2019-02-09T04:17:11.391Z,97.22
2019-02-09T04:18:11.596Z,96.65
2019-02-09T04:19:11.796Z,96.93
2019-02-09T04:20:12.017Z,97.03
2019-02-09T04:21:12.096Z,97.12
2019-02-09T04:22:12.289Z,96.93
2019-02-09T04:23:12.499Z,96.74
2019-02-09T04:24:12.711Z,97.69
2019-02-09T04:25:12.957Z,97.41
2019-02-09T04:26:13.021Z,97.12
2019-02-09T04:27:13.226Z,97.31
2019-02-09T04:28:13.438Z,97.60
2019-02-09T04:29:13.655Z,97.22
2019-02-09T04:30:13.867Z,97.41
2019-02-09T04:31:14.058Z,97.22
2019-02-09T04:32:14.308Z,97.22
2019-02-09T04:33:14.373Z,97.41
2019-02-09T04:34:14.590Z,97.41
2019-02-09T04:35:14.810Z,97.03
2019-02-09T04:36:14.863Z,97.22
2019-02-09T04:37:15.163Z,97.60
2019-02-09T04:38:15.273Z,96.93
2019-02-09T04:39:15.348Z,97.31
2019-02-09T04:40:15.548Z,97.22
2019-02-09T04:41:15.776Z,97.31
2019-02-09T04:42:15.851Z,96.74
2019-02-09T04:43:16.047Z,96.65
2019-02-09T04:44:16.240Z,96.93
2019-02-09T04:45:16.440Z,96.36
2019-02-09T04:46:16.558Z,96.45
2019-02-09T04:47:16.755Z,96.45
2019-02-09T04:48:16.972Z,96.08
2019-02-09T04:49:17.112Z,96.26
2019-02-09T04:50:17.167Z,96.45
2019-02-09T04:51:17.354Z,96.65
2019-02-09T04:52:17.559Z,96.74
2019-02-09T04:53:17.776Z,96.45
2019-02-09T04:54:17.956Z,96.26
2019-02-09T04:55:18.161Z,96.36
2019-02-09T04:56:18.391Z,96.74
2019-02-09T04:57:18.459Z,97.03
2019-02-09T04:58:18.657Z,97.22
2019-02-09T04:59:18.904Z,98.36
2019-02-09T05:00:18.967Z,98.07
2019-02-09T05:01:19.175Z,98.93
2019-02-09T05:02:19.372Z,98.93
2019-02-09T05:03:19.580Z,99.59
2019-02-09T05:04:19.740Z,99.69
2019-02-09T05:05:19.950Z,99.21
2019-02-09T05:06:20.142Z,99.59
2019-02-09T05:07:20.367Z,99.88
2019-02-09T05:08:20.576Z,99.59
2019-02-09T05:09:20.802Z,99.40
2019-02-09T05:10:20.879Z,99.40
2019-02-09T05:11:21.102Z,99.59
2019-02-09T05:12:21.302Z,99.88
2019-02-09T05:13:21.535Z,99.88
2019-02-09T05:14:21.610Z,99.40
2019-02-09T05:15:21.812Z,99.78
2019-02-09T05:16:22.018Z,99.59
2019-02-09T05:17:22.223Z,99.99
2019-02-09T05:18:22.433Z,99.88
2019-02-09T05:19:22.663Z,99.50
2019-02-09T05:20:24.646Z,99.50
2019-02-09T05:21:22.917Z,99.50
2019-02-09T05:22:23.130Z,99.50
2019-02-09T05:23:23.364Z,99.30
2019-02-09T05:24:23.452Z,99.88
2019-02-09T05:25:23.881Z,99.88
2019-02-09T05:26:24.380Z,99.88
2019-02-09T05:27:24.101Z,99.99
2019-02-09T05:28:24.159Z,99.99
2019-02-09T05:29:24.408Z,99.99
2019-02-09T05:30:24.517Z,99.99
2019-02-09T05:31:24.594Z,99.99
2019-02-09T05:32:24.813Z,99.99
2019-02-09T05:33:24.945Z,99.99
2019-02-09T05:34:25.144Z,99.99
2019-02-09T05:35:25.173Z,99.99
2019-02-09T05:36:25.384Z,99.99
2019-02-09T05:37:25.592Z,99.99
2019-02-09T05:38:25.932Z,99.99
2019-02-09T05:39:26.019Z,99.99
2019-02-09T05:40:26.213Z,99.99
2019-02-09T05:41:26.426Z,99.99
2019-02-09T05:42:26.634Z,99.99
2019-02-09T05:43:26.774Z,99.99
2019-02-09T05:44:26.984Z,99.99
2019-02-09T05:45:27.190Z,99.99
2019-02-09T05:46:27.388Z,99.99
2019-02-09T05:47:27.598Z,99.99
2019-02-09T05:48:27.826Z,99.99
2019-02-09T05:49:27.897Z,99.99
2019-02-09T05:50:28.130Z,99.99
2019-02-09T05:51:28.218Z,99.99
2019-02-09T05:52:28.436Z,99.99
2019-02-09T05:53:28.509Z,99.99
2019-02-09T05:54:28.732Z,99.99
2019-02-09T05:55:28.920Z,99.99
2019-02-09T05:56:29.114Z,99.99
2019-02-09T05:57:29.316Z,99.99
2019-02-09T05:58:29.541Z,99.99
2019-02-09T05:59:29.761Z,99.99
2019-02-09T06:00:29.940Z,99.99
2019-02-09T06:01:32.005Z,99.99
2019-02-09T06:02:30.481Z,99.99
2019-02-09T06:03:30.596Z,99.99
2019-02-09T06:04:30.939Z,99.99
2019-02-09T06:05:30.841Z,99.99
2019-02-09T06:06:32.481Z,99.69
2019-02-09T06:07:31.078Z,99.99
2019-02-09T06:08:31.135Z,99.99
2019-02-09T06:09:31.370Z,99.99
2019-02-09T06:10:31.662Z,99.99
2019-02-09T06:11:32.219Z,99.99
2019-02-09T06:12:31.920Z,99.99
2019-02-09T06:13:32.432Z,99.88
2019-02-09T06:14:32.135Z,99.50
2019-02-09T06:15:32.320Z,99.50
2019-02-09T06:16:32.356Z,99.69
2019-02-09T06:17:32.590Z,99.97
2019-02-09T06:18:32.765Z,99.59
2019-02-09T06:19:32.860Z,99.69
2019-02-09T06:20:32.938Z,99.69
2019-02-09T06:21:33.126Z,99.69
2019-02-09T06:22:33.337Z,99.69
2019-02-09T06:23:33.537Z,99.59
2019-02-09T06:24:33.692Z,99.99
2019-02-09T06:25:33.766Z,99.78
2019-02-09T06:26:34.005Z,99.50
2019-02-09T06:27:34.071Z,99.30
2019-02-09T06:28:34.236Z,99.40
2019-02-09T06:29:34.469Z,99.78
2019-02-09T06:30:34.539Z,99.88
2019-02-09T06:31:40.677Z,99.69
2019-02-09T06:32:34.937Z,99.30
2019-02-09T06:33:35.294Z,99.11
2019-02-09T06:34:35.235Z,99.50
2019-02-09T06:35:35.434Z,98.93
2019-02-09T06:36:35.654Z,99.21
2019-02-09T06:37:35.846Z,99.11
2019-02-09T06:38:36.050Z,99.21
2019-02-09T06:39:36.368Z,99.59
2019-02-09T06:40:36.477Z,98.93
2019-02-09T06:41:36.576Z,99.02
2019-02-09T06:42:36.659Z,99.59
2019-02-09T06:43:36.919Z,99.50
2019-02-09T06:44:37.000Z,99.78
2019-02-09T06:45:37.188Z,99.78
2019-02-09T06:46:37.414Z,99.30
2019-02-09T06:47:37.653Z,99.50
2019-02-09T06:48:37.755Z,99.21
2019-02-09T06:49:37.956Z,99.30
2019-02-09T06:50:38.471Z,98.55
2019-02-09T06:51:38.427Z,99.11
2019-02-09T06:52:38.710Z,99.02
2019-02-09T06:53:38.687Z,98.45
2019-02-09T06:54:38.784Z,98.45
2019-02-09T06:55:38.973Z,99.11
2019-02-09T06:56:39.100Z,99.02
2019-02-09T06:57:39.176Z,99.30
2019-02-09T06:58:39.433Z,99.11
2019-02-09T06:59:39.499Z,99.11
2019-02-09T07:00:39.700Z,98.55
2019-02-09T07:01:40.089Z,98.93
2019-02-09T07:02:40.069Z,99.11
2019-02-09T07:03:40.255Z,98.93
2019-02-09T07:04:40.526Z,98.64
2019-02-09T07:05:40.612Z,98.36
2019-02-09T07:06:40.824Z,98.17
2019-02-09T07:07:41.038Z,98.55
2019-02-09T07:08:41.125Z,97.78
2019-02-09T07:09:41.400Z,97.97
2019-02-09T07:10:41.481Z,97.78
2019-02-09T07:11:41.713Z,97.88
2019-02-09T07:12:41.819Z,98.07
2019-02-09T07:13:41.878Z,98.17
2019-02-09T07:14:42.123Z,97.41
2019-02-09T07:15:42.205Z,97.69
2019-02-09T07:16:42.424Z,97.50
2019-02-09T07:17:42.648Z,96.84
2019-02-09T07:18:42.867Z,97.03
2019-02-09T07:19:43.061Z,97.41
2019-02-09T07:20:43.290Z,96.74
2019-02-09T07:21:43.344Z,96.74
2019-02-09T07:22:43.552Z,96.50
2019-02-09T07:23:43.823Z,96.22
2019-02-09T07:24:43.850Z,97.08
2019-02-09T07:25:44.064Z,96.50
2019-02-09T07:26:44.291Z,96.22
2019-02-09T07:27:44.401Z,96.45
2019-02-09T07:28:44.477Z,96.69
2019-02-09T07:29:44.670Z,96.65
2019-02-09T07:30:44.881Z,95.70
2019-02-09T07:31:45.084Z,95.89
2019-02-09T07:32:45.277Z,95.89
2019-02-09T07:33:45.508Z,95.46
2019-02-09T07:34:45.706Z,96.03
2019-02-09T07:35:45.962Z,95.75
2019-02-09T07:36:46.762Z,95.56
2019-02-09T07:37:46.210Z,95.17
2019-02-09T07:38:46.420Z,94.89
2019-02-09T07:39:50.333Z,94.51
2019-02-09T07:40:46.783Z,93.94
2019-02-09T07:41:47.017Z,93.84
2019-02-09T07:42:47.084Z,94.98
2019-02-09T07:43:47.291Z,93.94
2019-02-09T07:44:47.468Z,93.65
2019-02-09T07:45:47.694Z,93.41
2019-02-09T07:46:47.903Z,92.75
2019-02-09T07:47:48.105Z,92.08
2019-02-09T07:48:48.326Z,91.42
2019-02-09T07:49:50.536Z,90.47
2019-02-09T07:50:50.742Z,90.28
2019-02-09T07:51:50.090Z,90.08
2019-02-09T07:52:49.484Z,90.42
2019-02-09T07:53:49.168Z,89.89
2019-02-09T07:54:49.384Z,89.89
2019-02-09T07:55:49.614Z,90.47
2019-02-09T07:56:49.699Z,90.66
2019-02-09T07:57:49.798Z,90.37
2019-02-09T07:58:49.996Z,90.18
2019-02-09T07:59:50.213Z,90.66
2019-02-09T08:00:50.386Z,90.75
2019-02-09T08:01:50.610Z,90.18
2019-02-09T08:02:50.854Z,89.99
2019-02-09T08:03:50.972Z,90.47
2019-02-09T08:04:51.148Z,90.28
2019-02-09T08:05:51.262Z,89.89
2019-02-09T08:06:51.370Z,90.66
2019-02-09T08:07:51.437Z,90.37
2019-02-09T08:08:51.668Z,90.18
2019-02-09T08:09:51.804Z,90.37
2019-02-09T08:10:51.863Z,90.08
2019-02-09T08:11:52.107Z,91.13
2019-02-09T08:12:52.181Z,91.13
2019-02-09T08:13:52.412Z,91.61
2019-02-09T08:14:52.527Z,91.32
2019-02-09T08:15:52.578Z,91.51
2019-02-09T08:16:52.795Z,91.32
2019-02-09T08:17:53.015Z,91.13
2019-02-09T08:18:53.219Z,91.22
2019-02-09T08:19:53.433Z,91.51
2019-02-09T08:20:53.698Z,91.03
2019-02-09T08:21:54.206Z,91.32
2019-02-09T08:22:54.672Z,90.66
2019-02-09T08:23:54.863Z,90.56
2019-02-09T08:24:54.121Z,90.47
2019-02-09T08:25:54.526Z,90.66
2019-02-09T08:26:54.767Z,90.47
2019-02-09T08:27:54.828Z,90.56
2019-02-09T08:28:54.967Z,90.28
2019-02-09T08:29:54.841Z,90.47
2019-02-09T08:30:55.295Z,90.08
2019-02-09T08:31:55.211Z,89.70
2019-02-09T08:32:55.697Z,90.13
2019-02-09T08:33:55.932Z,89.47
2019-02-09T08:34:55.721Z,88.70
2019-02-09T08:35:56.646Z,88.42
2019-02-09T08:36:56.128Z,88.60
2019-02-09T08:37:56.339Z,88.70
2019-02-09T08:38:57.379Z,87.94
2019-02-09T08:39:57.225Z,88.70
2019-02-09T08:40:57.101Z,88.32
2019-02-09T08:41:58.384Z,88.32
2019-02-09T08:42:58.629Z,88.32
2019-02-09T08:43:58.002Z,88.60
2019-02-09T08:44:57.477Z,87.75
2019-02-09T08:45:57.595Z,87.65
2019-02-09T08:46:57.889Z,87.37
2019-02-09T08:47:58.091Z,88.23
2019-02-09T08:48:58.093Z,87.94
2019-02-09T08:49:58.202Z,87.94
2019-02-09T08:50:58.413Z,87.42
2019-02-09T08:51:58.512Z,87.18
2019-02-09T08:52:58.586Z,87.08
2019-02-09T08:53:58.834Z,86.90
2019-02-09T08:54:59.001Z,86.90
2019-02-09T08:55:59.175Z,86.04
2019-02-09T08:56:59.265Z,85.85
2019-02-09T08:57:59.468Z,85.85
2019-02-09T08:58:59.553Z,85.28
2019-02-09T08:59:59.748Z,85.75
2019-02-09T09:01:00.059Z,86.04
2019-02-09T09:02:00.228Z,86.61
2019-02-09T09:03:00.303Z,86.51
2019-02-09T09:04:00.549Z,86.61
2019-02-09T09:05:00.631Z,86.22
2019-02-09T09:06:00.744Z,86.70
2019-02-09T09:07:00.949Z,86.22
2019-02-09T09:08:01.096Z,86.61
2019-02-09T09:09:01.257Z,86.18
2019-02-09T09:10:01.401Z,85.80
2019-02-09T09:11:01.667Z,85.03
2019-02-09T09:12:01.635Z,84.46
2019-02-09T09:13:01.907Z,84.75
2019-02-09T09:14:02.139Z,84.56
2019-02-09T09:15:02.808Z,85.41
2019-02-09T09:16:02.422Z,85.32
2019-02-09T09:17:03.277Z,85.80
2019-02-09T09:18:02.860Z,84.65
2019-02-09T09:19:02.699Z,84.94
2019-02-09T09:20:02.900Z,84.75
2019-02-09T09:21:03.354Z,84.65
2019-02-09T09:22:03.982Z,84.56
2019-02-09T09:23:03.545Z,83.36
2019-02-09T09:24:04.161Z,83.51
2019-02-09T09:25:04.765Z,83.55
2019-02-09T09:26:04.798Z,83.55
2019-02-09T09:27:05.203Z,83.17
2019-02-09T09:28:05.062Z,83.55
2019-02-09T09:29:04.531Z,82.79
2019-02-09T09:30:06.885Z,83.17
2019-02-09T09:31:05.181Z,82.60
2019-02-09T09:32:06.020Z,82.79
2019-02-09T09:33:05.125Z,82.50
2019-02-09T09:34:05.414Z,82.31
2019-02-09T09:35:05.517Z,82.79
2019-02-09T09:36:05.670Z,82.69
2019-02-09T09:37:06.228Z,82.65
2019-02-09T09:38:06.465Z,81.89
2019-02-09T09:39:07.318Z,82.12
2019-02-09T09:40:06.343Z,82.03
2019-02-09T09:41:06.281Z,82.03
2019-02-09T09:42:06.540Z,81.98
2019-02-09T09:43:07.189Z,82.41
2019-02-09T09:44:06.732Z,80.96
2019-02-09T09:45:06.915Z,79.40
2019-02-09T09:46:07.615Z,79.11
2019-02-09T09:47:07.424Z,79.11
2019-02-09T09:48:07.395Z,79.11
2019-02-09T09:49:07.427Z,78.92
2019-02-09T09:50:07.837Z,79.49
2019-02-09T09:51:07.793Z,78.83
2019-02-09T09:52:08.318Z,78.54
2019-02-09T09:53:08.292Z,78.41
2019-02-09T09:54:08.365Z,79.02
2019-02-09T09:55:08.864Z,79.02
2019-02-09T09:56:08.556Z,78.98
2019-02-09T09:57:08.982Z,79.21
2019-02-09T09:58:09.023Z,79.15
2019-02-09T09:59:08.848Z,77.62
2019-02-09T10:00:09.060Z,77.01
2019-02-09T10:01:09.296Z,77.01
2019-02-09T10:02:09.652Z,77.78
2019-02-09T10:03:09.637Z,77.97
2019-02-09T10:04:09.706Z,78.22
2019-02-09T10:05:10.264Z,78.31
2019-02-09T10:06:10.121Z,79.27
2019-02-09T10:07:10.391Z,78.98
2019-02-09T10:08:10.605Z,79.46
2019-02-09T10:09:11.416Z,79.27
2019-02-09T10:10:12.765Z,78.35
2019-02-09T10:11:11.480Z,78.25
2019-02-09T10:12:11.892Z,77.74
2019-02-09T10:13:12.517Z,78.12
2019-02-09T10:14:12.132Z,79.17
2019-02-09T10:15:12.341Z,79.07
2019-02-09T10:16:12.413Z,79.64
2019-02-09T10:17:12.033Z,78.03
2019-02-09T10:18:16.013Z,77.93
2019-02-09T10:19:12.794Z,77.55
2019-02-09T10:20:13.755Z,77.55
2019-02-09T10:21:14.304Z,77.26
2019-02-09T10:22:14.257Z,77.01
2019-02-09T10:23:13.778Z,77.30
2019-02-09T10:24:12.792Z,77.69
2019-02-09T10:25:13.346Z,76.82
2019-02-09T10:26:13.938Z,76.69
2019-02-09T10:27:13.295Z,76.40
2019-02-09T10:28:13.513Z,76.40
2019-02-09T10:29:13.763Z,76.92
2019-02-09T10:30:14.193Z,76.16
2019-02-09T10:31:14.257Z,75.59
2019-02-09T10:32:14.631Z,76.73
2019-02-09T10:33:15.867Z,75.96
2019-02-09T10:34:14.553Z,75.96
2019-02-09T10:35:15.028Z,75.40
2019-02-09T10:36:15.069Z,75.84
2019-02-09T10:37:15.385Z,76.31
2019-02-09T10:38:15.693Z,76.50
2019-02-09T10:39:15.264Z,76.12
2019-02-09T10:40:15.980Z,75.64
2019-02-09T10:41:16.880Z,76.25
2019-02-09T10:42:16.170Z,75.84
2019-02-09T10:43:16.363Z,76.12
2019-02-09T10:44:16.311Z,76.59
2019-02-09T10:45:16.273Z,76.92
2019-02-09T10:46:16.693Z,76.16
2019-02-09T10:47:16.727Z,76.44
2019-02-09T10:48:16.778Z,76.01
2019-02-09T10:49:17.004Z,73.47
2019-02-09T10:50:17.081Z,72.93
2019-02-09T10:51:17.406Z,71.12
2019-02-09T10:52:19.033Z,70.77
2019-02-09T10:53:17.680Z,69.82
2019-02-09T10:54:17.771Z,68.57
2019-02-09T10:55:17.965Z,68.54
2019-02-09T10:56:18.201Z,69.87
2019-02-09T10:57:18.270Z,70.45
2019-02-09T10:58:18.477Z,70.36
2019-02-09T10:59:18.906Z,70.98
2019-02-09T11:00:19.802Z,71.27
2019-02-09T11:01:18.953Z,71.18
2019-02-09T11:02:19.075Z,71.56
2019-02-09T11:03:19.145Z,72.32
2019-02-09T11:04:19.334Z,72.61
2019-02-09T11:05:19.523Z,72.32
2019-02-09T11:06:19.741Z,72.38
2019-02-09T11:07:19.968Z,72.51
2019-02-09T11:08:20.056Z,72.28
2019-02-09T11:09:20.288Z,72.23
2019-02-09T11:10:20.412Z,72.32
2019-02-09T11:11:20.523Z,71.41
2019-02-09T11:12:20.593Z,70.54
2019-02-09T11:13:20.855Z,69.18
2019-02-09T11:14:21.123Z,67.94
2019-02-09T11:15:21.043Z,67.65
2019-02-09T11:16:21.177Z,67.71
2019-02-09T11:17:21.263Z,67.65
2019-02-09T11:18:21.588Z,68.06
2019-02-09T11:19:21.587Z,68.67
2019-02-09T11:20:21.840Z,68.73
2019-02-09T11:21:21.920Z,69.31
2019-02-09T11:22:22.151Z,68.38
2019-02-09T11:23:22.354Z,67.91
2019-02-09T11:24:22.592Z,68.23
2019-02-09T11:25:22.739Z,67.84
2019-02-09T11:26:22.795Z,67.08
2019-02-09T11:27:23.234Z,67.08
2019-02-09T11:28:23.150Z,67.24
2019-02-09T11:29:23.343Z,67.94
2019-02-09T11:30:23.571Z,68.13
2019-02-09T11:31:23.645Z,68.48
2019-02-09T11:32:23.846Z,69.62
2019-02-09T11:33:24.063Z,70.26
2019-02-09T11:34:24.282Z,71.75
2019-02-09T11:35:24.493Z,72.42
2019-02-09T11:36:24.688Z,73.14
2019-02-09T11:37:24.890Z,73.72
2019-02-09T11:38:25.080Z,74.01
2019-02-09T11:39:25.283Z,74.67
2019-02-09T11:40:25.522Z,74.57
2019-02-09T11:41:25.590Z,74.67
2019-02-09T11:42:25.783Z,74.96
2019-02-09T11:43:26.001Z,75.34
2019-02-09T11:44:26.192Z,74.17
2019-02-09T11:45:26.393Z,72.24
2019-02-09T11:46:26.622Z,71.44
2019-02-09T11:47:26.843Z,70.52
2019-02-09T11:48:26.927Z,69.34
2019-02-09T11:49:27.013Z,69.27
2019-02-09T11:50:27.259Z,68.20
2019-02-09T11:51:27.374Z,66.51
2019-02-09T11:52:27.653Z,65.68
2019-02-09T11:53:27.602Z,64.56
2019-02-09T11:54:27.674Z,63.29
2019-02-09T11:55:27.964Z,63.26
2019-02-09T11:56:28.088Z,63.13
2019-02-09T11:57:28.293Z,65.11
2019-02-09T11:58:28.379Z,65.58
2019-02-09T11:59:28.856Z,64.82
2019-02-09T12:00:28.762Z,65.64
2019-02-09T12:01:28.942Z,67.55
2019-02-09T12:02:29.237Z,68.23
2019-02-09T12:03:29.202Z,67.78
2019-02-09T12:04:29.380Z,66.54
2019-02-09T12:05:29.663Z,66.47
2019-02-09T12:06:30.308Z,67.52
2019-02-09T12:07:30.251Z,66.54
2019-02-09T12:08:30.290Z,65.20
2019-02-09T12:09:30.313Z,64.09
2019-02-09T12:10:30.970Z,64.05
2019-02-09T12:11:30.785Z,65.04
2019-02-09T12:12:32.366Z,65.93
2019-02-09T12:13:31.084Z,65.20
2019-02-09T12:14:31.255Z,64.34
2019-02-09T12:15:31.224Z,64.82
2019-02-09T12:16:31.372Z,65.45
2019-02-09T12:17:32.175Z,65.26
2019-02-09T12:18:32.018Z,66.28
2019-02-09T12:19:31.736Z,66.85
2019-02-09T12:20:31.871Z,66.72
2019-02-09T12:21:31.985Z,67.49
2019-02-09T12:22:32.183Z,68.16
2019-02-09T12:23:32.394Z,68.26
2019-02-09T12:24:32.665Z,68.06
2019-02-09T12:25:32.815Z,68.26
2019-02-09T12:26:32.842Z,68.70
2019-02-09T12:27:32.986Z,68.79
2019-02-09T12:28:33.174Z,69.08
2019-02-09T12:29:33.394Z,68.98
2019-02-09T12:30:33.653Z,69.65
2019-02-09T12:31:33.839Z,69.93
2019-02-09T12:32:34.096Z,70.47
2019-02-09T12:33:34.156Z,70.13
2019-02-09T12:34:34.984Z,69.11
2019-02-09T12:35:34.542Z,67.71
2019-02-09T12:36:34.715Z,65.26
2019-02-09T12:37:35.011Z,65.36
2019-02-09T12:38:35.059Z,66.09
2019-02-09T12:39:36.310Z,67.52
2019-02-09T12:40:35.466Z,68.29
2019-02-09T12:41:35.754Z,68.63
2019-02-09T12:42:35.849Z,68.73
2019-02-09T12:43:36.270Z,69.21
2019-02-09T12:44:36.216Z,69.93
2019-02-09T12:45:36.408Z,70.89
2019-02-09T12:46:36.661Z,71.56
2019-02-09T12:47:36.770Z,72.23
2019-02-09T12:48:36.984Z,72.42
2019-02-09T12:49:37.292Z,72.61
2019-02-09T12:50:37.285Z,72.48
2019-02-09T12:51:37.450Z,72.99
2019-02-09T12:52:37.528Z,72.80
2019-02-09T12:53:37.756Z,72.36
2019-02-09T12:54:37.997Z,71.44